Allegro — J8B5341 — position and weather

sailwx.info

Track history (hours):
 
Tides and Currents Weather Stations Pressure Air Temp Water Temp Dewpoint Dewpoint Depression Visibility Wind Speed Wind Dir Waves Ship Positions

Allegro

Last reported at 2018-Feb-21 18:58 UTC. Time now 2018-Feb-21 19:27 UTC.
Position N 26°04' W 080°07'.

Length 100 m; draft 3.8 m.

Type: Ship. MMSI: 376609000.

Date/timePositionNaut miles runAvg speedWind from/ knotsBaromVisibWave heightAir tempDewpointWater temp
2018-Feb-21 18:58N 26°04' W 080°07'0 0.0
2018-Feb-21 18:30N 26°04' W 080°07'0 0.0
2018-Feb-21 18:00N 26°04' W 080°07'0 0.0
2018-Feb-21 17:30N 26°04' W 080°07'3 5.2
2018-Feb-21 17:00N 26°06' W 080°05'1 1.9
2018-Feb-21 16:30N 26°07' W 080°05'0 0.2
2018-Feb-21 16:00N 26°07' W 080°05'0 0.1
2018-Feb-21 15:30N 26°07' W 080°05'0 0.0
2018-Feb-21 15:00N 26°07' W 080°05'0 0.0
2018-Feb-21 14:30N 26°07' W 080°05'0 0.0
2018-Feb-21 14:00N 26°07' W 080°05'0 0.0
2018-Feb-21 13:30N 26°07' W 080°05'0 0.0
2018-Feb-21 13:00N 26°07' W 080°05'0 0.0
2018-Feb-21 12:30N 26°07' W 080°05'0 0.0
2018-Feb-21 12:00N 26°07' W 080°05'0 0.0
2018-Feb-21 11:31N 26°07' W 080°05'0 0.0
2018-Feb-21 11:00N 26°07' W 080°05'0 0.0
2018-Feb-21 10:30N 26°07' W 080°05'0 0.0
2018-Feb-21 10:00N 26°07' W 080°05'0 0.1
2018-Feb-21 09:31N 26°07' W 080°05'0 0.0
2018-Feb-21 09:00N 26°07' W 080°05'0 0.0
2018-Feb-21 08:30N 26°07' W 080°05'0 0.0
2018-Feb-21 08:00N 26°07' W 080°05'0 0.0
2018-Feb-21 07:30N 26°07' W 080°05'0 0.3
2018-Feb-21 07:00N 26°07' W 080°05'2 3.1
2018-Feb-21 06:30N 26°07' W 080°03'611.4
2018-Feb-21 06:00N 26°07' W 079°57'713.2
2018-Feb-21 05:29N 26°08' W 079°49'613.1
2018-Feb-21 05:00N 26°08' W 079°42'713.6
2018-Feb-21 04:30N 26°08' W 079°34'  
2018-Feb-17 21:08N 26°09' W 079°30'110.2
2018-Feb-17 20:59N 26°09' W 079°32'510.4
2018-Feb-17 20:30N 26°08' W 079°37'510.6
2018-Feb-17 20:00N 26°08' W 079°43'510.7
2018-Feb-17 19:30N 26°07' W 079°49'510.5
2018-Feb-17 19:00N 26°07' W 079°55'510.5
2018-Feb-17 18:30N 26°06' W 080°01'5 9.2
2018-Feb-17 18:01N 26°06' W 080°06'2 3.5
2018-Feb-17 17:30N 26°04' W 080°07'0 0.0
2018-Feb-17 16:59N 26°04' W 080°07'0 0.0
2018-Feb-17 16:29N 26°04' W 080°07'0 0.0
2018-Feb-17 15:59N 26°04' W 080°07'0 0.0
2018-Feb-17 15:29N 26°04' W 080°07'0 0.0
2018-Feb-17 14:59N 26°04' W 080°07'0 0.0
2018-Feb-17 14:28N 26°04' W 080°07'0 0.0
2018-Feb-17 13:58N 26°04' W 080°07'0 0.0
2018-Feb-17 13:28N 26°04' W 080°07'0 0.0
2018-Feb-17 12:58N 26°04' W 080°07'0 0.0
2018-Feb-17 12:31N 26°04' W 080°07'0 0.0
2018-Feb-17 12:00N 26°04' W 080°07'0 0.0
2018-Feb-17 11:30N 26°04' W 080°07'0 0.0
2018-Feb-17 11:00N 26°04' W 080°07'0 0.0
2018-Feb-17 10:30N 26°04' W 080°07'0 0.0
2018-Feb-17 09:59N 26°04' W 080°07'0 0.0
2018-Feb-17 09:29N 26°04' W 080°07'0 0.0
2018-Feb-17 09:01N 26°04' W 080°07'1 1.1
2018-Feb-17 08:31N 26°05' W 080°07'3 6.6
2018-Feb-17 08:00N 26°07' W 080°04'1 1.0
2018-Feb-17 07:31N 26°08' W 080°04'0 0.0
2018-Feb-17 06:56N 26°08' W 080°04'0 0.0
2018-Feb-17 06:28N 26°08' W 080°04'0 0.0
2018-Feb-17 05:52N 26°08' W 080°04'0 0.0
2018-Feb-17 05:28N 26°08' W 080°04'0 0.0
2018-Feb-17 04:58N 26°08' W 080°04'0 0.0
2018-Feb-17 04:24N 26°08' W 080°04'0 0.0
2018-Feb-17 03:51N 26°08' W 080°04'0 0.0
2018-Feb-17 03:30N 26°08' W 080°04'0 0.1
2018-Feb-17 02:57N 26°08' W 080°04'0 0.0
2018-Feb-17 02:30N 26°08' W 080°04'0 0.0
2018-Feb-17 01:59N 26°08' W 080°05'0 0.0
2018-Feb-17 01:29N 26°08' W 080°05'0 0.0
2018-Feb-17 00:59N 26°08' W 080°05'0 0.3
2018-Feb-17 00:30N 26°08' W 080°04'2 3.1
2018-Feb-17 00:00N 26°08' W 080°03'510.5
2018-Feb-16 23:30N 26°12' W 079°59'510.1
2018-Feb-16 23:00N 26°17' W 079°57'510.0
2018-Feb-16 22:29N 26°21' W 079°54'5 9.6
2018-Feb-16 22:00N 26°26' W 079°54'23 9.4
2018-Feb-16 19:34N 26°49' W 079°54'1 9.4
2018-Feb-16 19:30N 26°50' W 079°54'4 9.2
2018-Feb-16 19:01N 26°54' W 079°54'5 9.5
2018-Feb-16 18:30N 26°59' W 079°54'5 9.4
2018-Feb-16 18:00N 27°04' W 079°54'  
Track history (hours):
 
Tides and Currents Weather Stations Pressure Air Temp Water Temp Dewpoint Dewpoint Depression Visibility Wind Speed Wind Dir Waves Ship Positions

Allegro

Last reported at 2018-Feb-21 18:58 UTC. Time now 2018-Feb-21 19:27 UTC.
Position N 26°04' W 080°07'.

Length 100 m; draft 3.8 m.

Type: Ship. MMSI: 376609000.

Date/timePositionNaut miles runAvg speedWind from/ knotsBaromVisibWave heightAir tempDewpointWater temp
2018-Feb-21 18:58N 26°04' W 080°07'0 0.0
2018-Feb-21 18:30N 26°04' W 080°07'0 0.0
2018-Feb-21 18:00N 26°04' W 080°07'0 0.0
2018-Feb-21 17:30N 26°04' W 080°07'3 5.2
2018-Feb-21 17:00N 26°06' W 080°05'1 1.9
2018-Feb-21 16:30N 26°07' W 080°05'0 0.2
2018-Feb-21 16:00N 26°07' W 080°05'0 0.1
2018-Feb-21 15:30N 26°07' W 080°05'0 0.0
2018-Feb-21 15:00N 26°07' W 080°05'0 0.0
2018-Feb-21 14:30N 26°07' W 080°05'0 0.0
2018-Feb-21 14:00N 26°07' W 080°05'0 0.0
2018-Feb-21 13:30N 26°07' W 080°05'0 0.0
2018-Feb-21 13:00N 26°07' W 080°05'0 0.0
2018-Feb-21 12:30N 26°07' W 080°05'0 0.0
2018-Feb-21 12:00N 26°07' W 080°05'0 0.0
2018-Feb-21 11:31N 26°07' W 080°05'0 0.0
2018-Feb-21 11:00N 26°07' W 080°05'0 0.0
2018-Feb-21 10:30N 26°07' W 080°05'0 0.0
2018-Feb-21 10:00N 26°07' W 080°05'0 0.1
2018-Feb-21 09:31N 26°07' W 080°05'0 0.0
2018-Feb-21 09:00N 26°07' W 080°05'0 0.0
2018-Feb-21 08:30N 26°07' W 080°05'0 0.0
2018-Feb-21 08:00N 26°07' W 080°05'0 0.0
2018-Feb-21 07:30N 26°07' W 080°05'0 0.3
2018-Feb-21 07:00N 26°07' W 080°05'2 3.1
2018-Feb-21 06:30N 26°07' W 080°03'611.4
2018-Feb-21 06:00N 26°07' W 079°57'713.2
2018-Feb-21 05:29N 26°08' W 079°49'613.1
2018-Feb-21 05:00N 26°08' W 079°42'713.6
2018-Feb-21 04:30N 26°08' W 079°34'  
2018-Feb-17 21:08N 26°09' W 079°30'110.2
2018-Feb-17 20:59N 26°09' W 079°32'510.4
2018-Feb-17 20:30N 26°08' W 079°37'510.6
2018-Feb-17 20:00N 26°08' W 079°43'510.7
2018-Feb-17 19:30N 26°07' W 079°49'510.5
2018-Feb-17 19:00N 26°07' W 079°55'510.5
2018-Feb-17 18:30N 26°06' W 080°01'5 9.2
2018-Feb-17 18:01N 26°06' W 080°06'2 3.5
2018-Feb-17 17:30N 26°04' W 080°07'0 0.0
2018-Feb-17 16:59N 26°04' W 080°07'0 0.0
2018-Feb-17 16:29N 26°04' W 080°07'0 0.0
2018-Feb-17 15:59N 26°04' W 080°07'0 0.0
2018-Feb-17 15:29N 26°04' W 080°07'0 0.0
2018-Feb-17 14:59N 26°04' W 080°07'0 0.0
2018-Feb-17 14:28N 26°04' W 080°07'0 0.0
2018-Feb-17 13:58N 26°04' W 080°07'0 0.0
2018-Feb-17 13:28N 26°04' W 080°07'0 0.0
2018-Feb-17 12:58N 26°04' W 080°07'0 0.0
2018-Feb-17 12:31N 26°04' W 080°07'0 0.0
2018-Feb-17 12:00N 26°04' W 080°07'0 0.0
2018-Feb-17 11:30N 26°04' W 080°07'0 0.0
2018-Feb-17 11:00N 26°04' W 080°07'0 0.0
2018-Feb-17 10:30N 26°04' W 080°07'0 0.0
2018-Feb-17 09:59N 26°04' W 080°07'0 0.0
2018-Feb-17 09:29N 26°04' W 080°07'0 0.0
2018-Feb-17 09:01N 26°04' W 080°07'1 1.1
2018-Feb-17 08:31N 26°05' W 080°07'3 6.6
2018-Feb-17 08:00N 26°07' W 080°04'1 1.0
2018-Feb-17 07:31N 26°08' W 080°04'0 0.0
2018-Feb-17 06:56N 26°08' W 080°04'0 0.0
2018-Feb-17 06:28N 26°08' W 080°04'0 0.0
2018-Feb-17 05:52N 26°08' W 080°04'0 0.0
2018-Feb-17 05:28N 26°08' W 080°04'0 0.0
2018-Feb-17 04:58N 26°08' W 080°04'0 0.0
2018-Feb-17 04:24N 26°08' W 080°04'0 0.0
2018-Feb-17 03:51N 26°08' W 080°04'0 0.0
2018-Feb-17 03:30N 26°08' W 080°04'0 0.1
2018-Feb-17 02:57N 26°08' W 080°04'0 0.0
2018-Feb-17 02:30N 26°08' W 080°04'0 0.0
2018-Feb-17 01:59N 26°08' W 080°05'0 0.0
2018-Feb-17 01:29N 26°08' W 080°05'0 0.0
2018-Feb-17 00:59N 26°08' W 080°05'0 0.3
2018-Feb-17 00:30N 26°08' W 080°04'2 3.1
2018-Feb-17 00:00N 26°08' W 080°03'510.5
2018-Feb-16 23:30N 26°12' W 079°59'510.1
2018-Feb-16 23:00N 26°17' W 079°57'510.0
2018-Feb-16 22:29N 26°21' W 079°54'5 9.6
2018-Feb-16 22:00N 26°26' W 079°54'23 9.4
2018-Feb-16 19:34N 26°49' W 079°54'1 9.4
2018-Feb-16 19:30N 26°50' W 079°54'4 9.2
2018-Feb-16 19:01N 26°54' W 079°54'5 9.5
2018-Feb-16 18:30N 26°59' W 079°54'5 9.4
2018-Feb-16 18:00N 27°04' W 079°54'  

Dump ship's entire track history